sensor_id;sensor_type;location;lat;lon;timestamp;P1;durP1;ratioP1;P2;durP2;ratioP2
4049;SDS011;2039;50.894;6.888;2022-09-09T00:01:51;65.23;;;7.03;;
4049;SDS011;2039;50.894;6.888;2022-09-09T00:04:28;67.50;;;5.77;;
4049;SDS011;2039;50.894;6.888;2022-09-09T00:09:49;67.27;;;7.80;;
4049;SDS011;2039;50.894;6.888;2022-09-09T00:15:20;64.87;;;7.70;;
4049;SDS011;2039;50.894;6.888;2022-09-09T00:18:12;66.30;;;8.23;;
4049;SDS011;2039;50.894;6.888;2022-09-09T00:23:14;66.90;;;11.40;;
4049;SDS011;2039;50.894;6.888;2022-09-09T00:26:19;67.37;;;9.20;;
4049;SDS011;2039;50.894;6.888;2022-09-09T00:31:23;66.93;;;8.53;;
4049;SDS011;2039;50.894;6.888;2022-09-09T00:33:53;64.93;;;7.80;;
4049;SDS011;2039;50.894;6.888;2022-09-09T00:36:24;65.70;;;8.67;;
4049;SDS011;2039;50.894;6.888;2022-09-09T00:38:52;66.60;;;7.43;;
4049;SDS011;2039;50.894;6.888;2022-09-09T00:55:16;65.20;;;5.00;;
4049;SDS011;2039;50.894;6.888;2022-09-09T00:58:06;64.50;;;4.13;;
4049;SDS011;2039;50.894;6.888;2022-09-09T01:11:25;64.50;;;4.20;;
4049;SDS011;2039;50.894;6.888;2022-09-09T01:14:39;65.07;;;4.93;;
4049;SDS011;2039;50.894;6.888;2022-09-09T01:25:29;70.40;;;5.23;;
4049;SDS011;2039;50.894;6.888;2022-09-09T01:28:05;66.30;;;5.30;;
4049;SDS011;2039;50.894;6.888;2022-09-09T01:30:38;66.00;;;6.63;;
4049;SDS011;2039;50.894;6.888;2022-09-09T01:33:05;65.93;;;4.50;;
4049;SDS011;2039;50.894;6.888;2022-09-09T01:38:21;63.57;;;4.07;;
4049;SDS011;2039;50.894;6.888;2022-09-09T01:40:48;64.07;;;4.60;;
4049;SDS011;2039;50.894;6.888;2022-09-09T01:43:17;63.90;;;4.63;;
4049;SDS011;2039;50.894;6.888;2022-09-09T01:45:44;64.27;;;5.90;;
4049;SDS011;2039;50.894;6.888;2022-09-09T01:48:13;63.97;;;5.47;;
4049;SDS011;2039;50.894;6.888;2022-09-09T01:50:39;65.17;;;5.70;;
4049;SDS011;2039;50.894;6.888;2022-09-09T01:53:05;64.77;;;6.20;;
4049;SDS011;2039;50.894;6.888;2022-09-09T01:55:33;67.87;;;7.53;;
4049;SDS011;2039;50.894;6.888;2022-09-09T02:03:47;67.50;;;5.97;;
4049;SDS011;2039;50.894;6.888;2022-09-09T02:06:25;65.87;;;6.77;;
4049;SDS011;2039;50.894;6.888;2022-09-09T02:09:00;66.60;;;6.53;;
4049;SDS011;2039;50.894;6.888;2022-09-09T02:11:29;67.37;;;6.80;;
4049;SDS011;2039;50.894;6.888;2022-09-09T02:14:06;67.03;;;8.07;;
4049;SDS011;2039;50.894;6.888;2022-09-09T02:19:24;64.63;;;6.90;;
4049;SDS011;2039;50.894;6.888;2022-09-09T02:21:55;66.47;;;7.77;;
4049;SDS011;2039;50.894;6.888;2022-09-09T02:24:24;65.03;;;6.07;;
4049;SDS011;2039;50.894;6.888;2022-09-09T02:26:51;66.20;;;6.87;;
4049;SDS011;2039;50.894;6.888;2022-09-09T02:29:23;66.03;;;5.97;;
4049;SDS011;2039;50.894;6.888;2022-09-09T02:31:59;65.53;;;6.63;;
4049;SDS011;2039;50.894;6.888;2022-09-09T02:34:29;66.57;;;6.37;;
4049;SDS011;2039;50.894;6.888;2022-09-09T02:36:58;68.57;;;7.27;;
4049;SDS011;2039;50.894;6.888;2022-09-09T02:39:25;64.90;;;6.40;;
4049;SDS011;2039;50.894;6.888;2022-09-09T02:41:51;65.47;;;7.87;;
4049;SDS011;2039;50.894;6.888;2022-09-09T02:44:18;67.97;;;7.17;;
4049;SDS011;2039;50.894;6.888;2022-09-09T02:46:55;66.80;;;6.97;;
4049;SDS011;2039;50.894;6.888;2022-09-09T02:52:20;65.40;;;6.97;;
4049;SDS011;2039;50.894;6.888;2022-09-09T02:54:57;69.47;;;8.77;;
4049;SDS011;2039;50.894;6.888;2022-09-09T02:57:30;68.47;;;8.30;;
4049;SDS011;2039;50.894;6.888;2022-09-09T02:59:58;67.67;;;7.57;;
4049;SDS011;2039;50.894;6.888;2022-09-09T03:02:25;65.30;;;7.03;;
4049;SDS011;2039;50.894;6.888;2022-09-09T03:04:51;65.87;;;8.90;;
4049;SDS011;2039;50.894;6.888;2022-09-09T03:07:17;68.87;;;8.87;;
4049;SDS011;2039;50.894;6.888;2022-09-09T03:09:44;66.50;;;8.67;;
4049;SDS011;2039;50.894;6.888;2022-09-09T03:12:10;65.97;;;9.90;;
4049;SDS011;2039;50.894;6.888;2022-09-09T03:14:36;66.00;;;7.70;;
4049;SDS011;2039;50.894;6.888;2022-09-09T03:17:03;66.10;;;8.37;;
4049;SDS011;2039;50.894;6.888;2022-09-09T03:19:29;66.43;;;7.93;;
4049;SDS011;2039;50.894;6.888;2022-09-09T03:21:55;66.20;;;9.47;;
4049;SDS011;2039;50.894;6.888;2022-09-09T03:24:21;67.00;;;8.70;;
4049;SDS011;2039;50.894;6.888;2022-09-09T03:26:47;66.87;;;8.53;;
4049;SDS011;2039;50.894;6.888;2022-09-09T03:29:13;70.07;;;10.67;;
4049;SDS011;2039;50.894;6.888;2022-09-09T03:31:40;66.87;;;8.63;;
4049;SDS011;2039;50.894;6.888;2022-09-09T03:34:08;84.93;;;13.40;;
4049;SDS011;2039;50.894;6.888;2022-09-09T03:36:38;66.30;;;11.20;;
4049;SDS011;2039;50.894;6.888;2022-09-09T03:39:06;68.53;;;9.80;;
4049;SDS011;2039;50.894;6.888;2022-09-09T03:41:31;68.33;;;10.90;;
4049;SDS011;2039;50.894;6.888;2022-09-09T03:43:57;67.70;;;9.63;;
4049;SDS011;2039;50.894;6.888;2022-09-09T03:46:26;66.80;;;8.67;;
4049;SDS011;2039;50.894;6.888;2022-09-09T03:48:52;67.27;;;11.07;;
4049;SDS011;2039;50.894;6.888;2022-09-09T03:51:18;69.23;;;9.83;;
4049;SDS011;2039;50.894;6.888;2022-09-09T03:53:44;66.93;;;9.97;;
4049;SDS011;2039;50.894;6.888;2022-09-09T03:56:09;69.43;;;11.70;;
4049;SDS011;2039;50.894;6.888;2022-09-09T03:58:36;71.20;;;11.50;;
4049;SDS011;2039;50.894;6.888;2022-09-09T04:01:03;68.00;;;10.50;;
4049;SDS011;2039;50.894;6.888;2022-09-09T04:03:35;67.30;;;10.67;;
4049;SDS011;2039;50.894;6.888;2022-09-09T04:06:01;67.17;;;10.93;;
4049;SDS011;2039;50.894;6.888;2022-09-09T04:08:29;71.00;;;10.57;;
4049;SDS011;2039;50.894;6.888;2022-09-09T04:10:58;65.90;;;8.50;;
4049;SDS011;2039;50.894;6.888;2022-09-09T04:13:25;73.60;;;10.53;;
4049;SDS011;2039;50.894;6.888;2022-09-09T04:15:52;67.80;;;11.47;;
4049;SDS011;2039;50.894;6.888;2022-09-09T04:18:26;66.70;;;9.87;;
4049;SDS011;2039;50.894;6.888;2022-09-09T04:20:55;66.87;;;10.33;;
4049;SDS011;2039;50.894;6.888;2022-09-09T04:23:25;72.33;;;11.17;;
4049;SDS011;2039;50.894;6.888;2022-09-09T04:25:54;66.77;;;10.13;;
4049;SDS011;2039;50.894;6.888;2022-09-09T04:28:21;67.60;;;9.60;;
4049;SDS011;2039;50.894;6.888;2022-09-09T04:30:49;71.70;;;9.37;;
4049;SDS011;2039;50.894;6.888;2022-09-09T04:33:15;66.87;;;10.10;;
4049;SDS011;2039;50.894;6.888;2022-09-09T04:35:49;67.37;;;11.80;;
4049;SDS011;2039;50.894;6.888;2022-09-09T04:38:15;68.23;;;9.37;;
4049;SDS011;2039;50.894;6.888;2022-09-09T04:40:43;67.27;;;9.43;;
4049;SDS011;2039;50.894;6.888;2022-09-09T04:43:12;73.93;;;9.13;;
4049;SDS011;2039;50.894;6.888;2022-09-09T04:45:39;67.40;;;11.00;;
4049;SDS011;2039;50.894;6.888;2022-09-09T04:48:05;67.07;;;8.00;;
4049;SDS011;2039;50.894;6.888;2022-09-09T04:50:32;68.60;;;8.37;;
4049;SDS011;2039;50.894;6.888;2022-09-09T04:53:01;67.57;;;10.90;;
4049;SDS011;2039;50.894;6.888;2022-09-09T04:55:28;68.93;;;10.60;;
4049;SDS011;2039;50.894;6.888;2022-09-09T04:57:58;71.67;;;11.70;;
4049;SDS011;2039;50.894;6.888;2022-09-09T05:00:29;67.87;;;9.33;;
4049;SDS011;2039;50.894;6.888;2022-09-09T05:02:54;71.90;;;7.80;;
4049;SDS011;2039;50.894;6.888;2022-09-09T05:05:20;69.10;;;8.90;;
4049;SDS011;2039;50.894;6.888;2022-09-09T05:07:45;65.90;;;8.30;;
4049;SDS011;2039;50.894;6.888;2022-09-09T05:10:12;67.40;;;8.10;;
4049;SDS011;2039;50.894;6.888;2022-09-09T05:12:41;66.90;;;9.00;;
4049;SDS011;2039;50.894;6.888;2022-09-09T05:15:07;71.53;;;9.20;;
4049;SDS011;2039;50.894;6.888;2022-09-09T05:17:34;66.07;;;8.50;;
4049;SDS011;2039;50.894;6.888;2022-09-09T05:20:00;66.80;;;8.40;;
4049;SDS011;2039;50.894;6.888;2022-09-09T05:22:26;67.13;;;9.30;;
4049;SDS011;2039;50.894;6.888;2022-09-09T05:24:51;66.50;;;9.87;;
4049;SDS011;2039;50.894;6.888;2022-09-09T05:27:17;68.60;;;9.77;;
4049;SDS011;2039;50.894;6.888;2022-09-09T05:29:44;74.43;;;9.03;;
4049;SDS011;2039;50.894;6.888;2022-09-09T05:32:10;65.70;;;8.33;;
4049;SDS011;2039;50.894;6.888;2022-09-09T05:34:36;65.20;;;7.47;;
4049;SDS011;2039;50.894;6.888;2022-09-09T05:37:03;66.87;;;7.70;;
4049;SDS011;2039;50.894;6.888;2022-09-09T05:39:29;66.73;;;7.60;;
4049;SDS011;2039;50.894;6.888;2022-09-09T05:41:55;68.07;;;8.20;;
4049;SDS011;2039;50.894;6.888;2022-09-09T05:44:21;65.60;;;8.00;;
4049;SDS011;2039;50.894;6.888;2022-09-09T05:46:50;68.10;;;8.30;;
4049;SDS011;2039;50.894;6.888;2022-09-09T05:49:15;70.40;;;8.27;;
4049;SDS011;2039;50.894;6.888;2022-09-09T05:51:42;65.07;;;7.10;;
4049;SDS011;2039;50.894;6.888;2022-09-09T05:54:10;66.00;;;6.30;;
4049;SDS011;2039;50.894;6.888;2022-09-09T05:56:38;73.50;;;8.50;;
4049;SDS011;2039;50.894;6.888;2022-09-09T05:59:04;69.17;;;6.23;;
4049;SDS011;2039;50.894;6.888;2022-09-09T06:01:31;63.47;;;4.60;;
4049;SDS011;2039;50.894;6.888;2022-09-09T06:03:59;64.37;;;4.93;;
4049;SDS011;2039;50.894;6.888;2022-09-09T06:06:26;66.17;;;5.37;;
4049;SDS011;2039;50.894;6.888;2022-09-09T06:09:02;65.77;;;4.37;;
4049;SDS011;2039;50.894;6.888;2022-09-09T06:11:31;64.93;;;4.50;;
4049;SDS011;2039;50.894;6.888;2022-09-09T06:13:57;68.30;;;4.00;;
4049;SDS011;2039;50.894;6.888;2022-09-09T06:16:24;63.50;;;4.20;;
4049;SDS011;2039;50.894;6.888;2022-09-09T06:18:52;68.47;;;3.70;;
4049;SDS011;2039;50.894;6.888;2022-09-09T06:23:55;63.93;;;3.60;;
4049;SDS011;2039;50.894;6.888;2022-09-09T06:26:21;67.00;;;3.90;;
4049;SDS011;2039;50.894;6.888;2022-09-09T06:28:50;64.77;;;4.00;;
4049;SDS011;2039;50.894;6.888;2022-09-09T06:31:18;69.97;;;4.83;;
4049;SDS011;2039;50.894;6.888;2022-09-09T06:33:47;68.43;;;3.83;;
4049;SDS011;2039;50.894;6.888;2022-09-09T06:36:18;71.03;;;5.50;;
4049;SDS011;2039;50.894;6.888;2022-09-09T06:38:46;67.40;;;6.40;;
4049;SDS011;2039;50.894;6.888;2022-09-09T06:41:13;67.20;;;5.30;;
4049;SDS011;2039;50.894;6.888;2022-09-09T06:43:40;67.60;;;5.60;;
4049;SDS011;2039;50.894;6.888;2022-09-09T06:46:08;66.67;;;8.67;;
4049;SDS011;2039;50.894;6.888;2022-09-09T06:48:40;67.90;;;8.90;;
4049;SDS011;2039;50.894;6.888;2022-09-09T06:51:08;68.77;;;8.57;;
4049;SDS011;2039;50.894;6.888;2022-09-09T06:53:38;67.00;;;8.30;;
4049;SDS011;2039;50.894;6.888;2022-09-09T06:58:42;70.83;;;8.10;;
4049;SDS011;2039;50.894;6.888;2022-09-09T07:01:12;66.97;;;5.50;;
4049;SDS011;2039;50.894;6.888;2022-09-09T07:03:39;66.07;;;5.60;;
4049;SDS011;2039;50.894;6.888;2022-09-09T07:06:07;68.50;;;6.50;;
4049;SDS011;2039;50.894;6.888;2022-09-09T07:08:39;65.77;;;4.07;;
4049;SDS011;2039;50.894;6.888;2022-09-09T07:11:06;67.27;;;5.30;;
4049;SDS011;2039;50.894;6.888;2022-09-09T07:13:33;65.20;;;4.30;;
4049;SDS011;2039;50.894;6.888;2022-09-09T07:16:03;66.07;;;4.87;;
4049;SDS011;2039;50.894;6.888;2022-09-09T07:18:33;70.33;;;4.13;;
4049;SDS011;2039;50.894;6.888;2022-09-09T07:20:59;66.10;;;4.00;;
4049;SDS011;2039;50.894;6.888;2022-09-09T07:23:27;66.50;;;4.53;;
4049;SDS011;2039;50.894;6.888;2022-09-09T07:25:53;65.40;;;4.60;;
4049;SDS011;2039;50.894;6.888;2022-09-09T07:28:19;67.77;;;4.37;;
4049;SDS011;2039;50.894;6.888;2022-09-09T07:30:58;65.40;;;3.70;;
4049;SDS011;2039;50.894;6.888;2022-09-09T07:33:29;67.00;;;4.47;;
4049;SDS011;2039;50.894;6.888;2022-09-09T07:36:06;67.67;;;4.83;;
4049;SDS011;2039;50.894;6.888;2022-09-09T07:38:38;66.07;;;4.70;;
4049;SDS011;2039;50.894;6.888;2022-09-09T07:41:05;64.27;;;4.50;;
4049;SDS011;2039;50.894;6.888;2022-09-09T07:43:36;67.17;;;3.90;;
4049;SDS011;2039;50.894;6.888;2022-09-09T07:46:03;66.17;;;4.77;;
4049;SDS011;2039;50.894;6.888;2022-09-09T07:48:30;69.10;;;3.97;;
4049;SDS011;2039;50.894;6.888;2022-09-09T07:51:31;68.67;;;3.20;;
4049;SDS011;2039;50.894;6.888;2022-09-09T07:53:57;71.10;;;3.67;;
4049;SDS011;2039;50.894;6.888;2022-09-09T07:56:28;68.93;;;4.00;;
4049;SDS011;2039;50.894;6.888;2022-09-09T07:58:55;68.80;;;3.20;;
4049;SDS011;2039;50.894;6.888;2022-09-09T08:03:54;67.03;;;2.60;;
4049;SDS011;2039;50.894;6.888;2022-09-09T08:06:30;66.27;;;3.50;;
4049;SDS011;2039;50.894;6.888;2022-09-09T08:09:00;67.10;;;3.17;;
4049;SDS011;2039;50.894;6.888;2022-09-09T08:11:27;65.73;;;2.80;;
4049;SDS011;2039;50.894;6.888;2022-09-09T08:13:53;70.70;;;3.10;;
4049;SDS011;2039;50.894;6.888;2022-09-09T08:16:23;68.17;;;3.10;;
4049;SDS011;2039;50.894;6.888;2022-09-09T08:18:51;67.53;;;2.57;;
4049;SDS011;2039;50.894;6.888;2022-09-09T08:21:20;65.70;;;2.70;;
4049;SDS011;2039;50.894;6.888;2022-09-09T08:23:49;64.87;;;2.90;;
4049;SDS011;2039;50.894;6.888;2022-09-09T08:26:18;67.37;;;3.90;;
4049;SDS011;2039;50.894;6.888;2022-09-09T08:28:49;69.00;;;4.73;;
4049;SDS011;2039;50.894;6.888;2022-09-09T08:31:17;72.00;;;6.97;;
4049;SDS011;2039;50.894;6.888;2022-09-09T08:33:47;66.97;;;5.63;;
4049;SDS011;2039;50.894;6.888;2022-09-09T08:36:15;70.60;;;8.17;;
4049;SDS011;2039;50.894;6.888;2022-09-09T08:38:43;67.67;;;9.60;;
4049;SDS011;2039;50.894;6.888;2022-09-09T08:49:53;68.73;;;8.10;;
4049;SDS011;2039;50.894;6.888;2022-09-09T08:52:29;70.37;;;8.10;;
4049;SDS011;2039;50.894;6.888;2022-09-09T08:54:56;66.33;;;5.23;;
4049;SDS011;2039;50.894;6.888;2022-09-09T08:57:47;69.80;;;6.43;;
4049;SDS011;2039;50.894;6.888;2022-09-09T09:00:18;67.63;;;6.93;;
4049;SDS011;2039;50.894;6.888;2022-09-09T09:02:55;70.70;;;6.40;;
4049;SDS011;2039;50.894;6.888;2022-09-09T09:10:57;68.23;;;4.50;;
4049;SDS011;2039;50.894;6.888;2022-09-09T09:19:08;65.40;;;3.67;;
4049;SDS011;2039;50.894;6.888;2022-09-09T09:21:48;74.73;;;4.23;;
4049;SDS011;2039;50.894;6.888;2022-09-09T09:24:37;69.77;;;4.23;;
4049;SDS011;2039;50.894;6.888;2022-09-09T09:30:22;66.03;;;5.33;;
4049;SDS011;2039;50.894;6.888;2022-09-09T09:33:11;68.90;;;7.40;;
4049;SDS011;2039;50.894;6.888;2022-09-09T09:35:40;69.27;;;4.73;;
4049;SDS011;2039;50.894;6.888;2022-09-09T09:38:39;66.37;;;3.93;;
4049;SDS011;2039;50.894;6.888;2022-09-09T09:40:59;67.00;;;4.23;;
4049;SDS011;2039;50.894;6.888;2022-09-09T09:43:35;69.33;;;6.20;;
4049;SDS011;2039;50.894;6.888;2022-09-09T09:46:05;72.83;;;6.07;;
4049;SDS011;2039;50.894;6.888;2022-09-09T09:48:43;65.40;;;3.90;;
4049;SDS011;2039;50.894;6.888;2022-09-09T09:51:11;66.87;;;3.53;;
4049;SDS011;2039;50.894;6.888;2022-09-09T09:53:40;68.50;;;5.47;;
4049;SDS011;2039;50.894;6.888;2022-09-09T09:56:11;69.47;;;5.00;;
4049;SDS011;2039;50.894;6.888;2022-09-09T10:01:26;67.27;;;2.83;;
4049;SDS011;2039;50.894;6.888;2022-09-09T10:03:58;67.67;;;2.43;;
4049;SDS011;2039;50.894;6.888;2022-09-09T10:06:30;69.77;;;3.63;;
4049;SDS011;2039;50.894;6.888;2022-09-09T10:08:55;66.47;;;2.80;;
4049;SDS011;2039;50.894;6.888;2022-09-09T10:11:27;65.30;;;2.60;;
4049;SDS011;2039;50.894;6.888;2022-09-09T10:14:14;68.83;;;3.07;;
4049;SDS011;2039;50.894;6.888;2022-09-09T10:17:00;66.70;;;3.30;;
4049;SDS011;2039;50.894;6.888;2022-09-09T10:19:38;67.87;;;3.00;;
4049;SDS011;2039;50.894;6.888;2022-09-09T10:35:34;67.87;;;3.03;;
4049;SDS011;2039;50.894;6.888;2022-09-09T10:40:41;65.97;;;2.30;;
4049;SDS011;2039;50.894;6.888;2022-09-09T10:56:42;68.27;;;3.17;;
4049;SDS011;2039;50.894;6.888;2022-09-09T10:59:15;71.43;;;2.57;;
4049;SDS011;2039;50.894;6.888;2022-09-09T11:01:50;65.90;;;1.97;;
4049;SDS011;2039;50.894;6.888;2022-09-09T11:04:42;65.40;;;2.30;;
4049;SDS011;2039;50.894;6.888;2022-09-09T11:07:17;67.80;;;2.27;;
4049;SDS011;2039;50.894;6.888;2022-09-09T11:09:54;66.10;;;2.23;;
4049;SDS011;2039;50.894;6.888;2022-09-09T11:12:26;66.10;;;2.57;;
4049;SDS011;2039;50.894;6.888;2022-09-09T11:15:17;66.17;;;2.30;;
4049;SDS011;2039;50.894;6.888;2022-09-09T11:17:43;65.87;;;2.43;;
4049;SDS011;2039;50.894;6.888;2022-09-09T11:20:14;67.90;;;2.20;;
4049;SDS011;2039;50.894;6.888;2022-09-09T11:28:02;69.20;;;2.90;;
4049;SDS011;2039;50.894;6.888;2022-09-09T11:40:31;65.90;;;2.27;;
4049;SDS011;2039;50.894;6.888;2022-09-09T11:43:02;65.67;;;2.43;;
4049;SDS011;2039;50.894;6.888;2022-09-09T11:45:30;67.30;;;2.07;;
4049;SDS011;2039;50.894;6.888;2022-09-09T11:48:01;68.07;;;2.27;;
4049;SDS011;2039;50.894;6.888;2022-09-09T11:50:31;67.97;;;2.87;;
4049;SDS011;2039;50.894;6.888;2022-09-09T11:53:19;68.70;;;2.60;;
4049;SDS011;2039;50.894;6.888;2022-09-09T11:55:59;65.80;;;2.50;;
4049;SDS011;2039;50.894;6.888;2022-09-09T11:58:32;66.03;;;2.30;;
4049;SDS011;2039;50.894;6.888;2022-09-09T12:01:14;66.80;;;2.37;;
4049;SDS011;2039;50.894;6.888;2022-09-09T12:03:51;66.27;;;2.20;;
4049;SDS011;2039;50.894;6.888;2022-09-09T12:06:49;71.30;;;2.90;;
4049;SDS011;2039;50.894;6.888;2022-09-09T12:17:27;66.87;;;2.67;;
4049;SDS011;2039;50.894;6.888;2022-09-09T12:28:23;65.90;;;2.27;;
4049;SDS011;2039;50.894;6.888;2022-09-09T12:31:02;67.60;;;2.13;;
4049;SDS011;2039;50.894;6.888;2022-09-09T12:33:43;69.33;;;2.20;;
4049;SDS011;2039;50.894;6.888;2022-09-09T12:36:33;65.00;;;2.13;;
4049;SDS011;2039;50.894;6.888;2022-09-09T12:38:58;65.87;;;2.27;;
4049;SDS011;2039;50.894;6.888;2022-09-09T12:41:50;67.10;;;2.60;;
4049;SDS011;2039;50.894;6.888;2022-09-09T12:44:21;65.27;;;2.53;;
4049;SDS011;2039;50.894;6.888;2022-09-09T12:46:47;64.80;;;2.27;;
4049;SDS011;2039;50.894;6.888;2022-09-09T12:52:06;67.80;;;2.23;;
4049;SDS011;2039;50.894;6.888;2022-09-09T12:54:38;68.03;;;2.67;;
4049;SDS011;2039;50.894;6.888;2022-09-09T12:57:11;68.10;;;2.20;;
4049;SDS011;2039;50.894;6.888;2022-09-09T12:59:42;66.67;;;2.80;;
4049;SDS011;2039;50.894;6.888;2022-09-09T13:02:23;68.13;;;2.30;;
4049;SDS011;2039;50.894;6.888;2022-09-09T13:04:51;66.10;;;2.53;;
4049;SDS011;2039;50.894;6.888;2022-09-09T13:07:18;66.60;;;2.37;;
4049;SDS011;2039;50.894;6.888;2022-09-09T13:09:45;66.60;;;2.30;;
4049;SDS011;2039;50.894;6.888;2022-09-09T13:12:16;68.07;;;2.63;;
4049;SDS011;2039;50.894;6.888;2022-09-09T13:14:44;66.57;;;2.33;;
4049;SDS011;2039;50.894;6.888;2022-09-09T13:17:28;65.43;;;2.00;;
4049;SDS011;2039;50.894;6.888;2022-09-09T13:19:54;64.83;;;1.97;;
4049;SDS011;2039;50.894;6.888;2022-09-09T13:25:33;65.37;;;2.07;;
4049;SDS011;2039;50.894;6.888;2022-09-09T13:28:03;66.80;;;2.00;;
4049;SDS011;2039;50.894;6.888;2022-09-09T13:38:20;67.30;;;2.10;;
4049;SDS011;2039;50.894;6.888;2022-09-09T13:40:56;65.70;;;2.30;;
4049;SDS011;2039;50.894;6.888;2022-09-09T13:43:29;66.20;;;2.03;;
4049;SDS011;2039;50.894;6.888;2022-09-09T13:46:03;64.70;;;1.87;;
4049;SDS011;2039;50.894;6.888;2022-09-09T13:48:31;67.40;;;1.73;;
4049;SDS011;2039;50.894;6.888;2022-09-09T13:51:03;65.70;;;1.70;;
4049;SDS011;2039;50.894;6.888;2022-09-09T13:53:30;64.37;;;1.77;;
4049;SDS011;2039;50.894;6.888;2022-09-09T13:55:57;65.37;;;2.00;;
4049;SDS011;2039;50.894;6.888;2022-09-09T13:58:23;65.63;;;1.90;;
4049;SDS011;2039;50.894;6.888;2022-09-09T14:00:50;64.50;;;1.83;;
4049;SDS011;2039;50.894;6.888;2022-09-09T14:03:17;66.70;;;2.30;;
4049;SDS011;2039;50.894;6.888;2022-09-09T14:05:43;65.10;;;2.03;;
4049;SDS011;2039;50.894;6.888;2022-09-09T14:08:11;66.00;;;2.60;;
4049;SDS011;2039;50.894;6.888;2022-09-09T14:10:47;66.37;;;2.47;;
4049;SDS011;2039;50.894;6.888;2022-09-09T14:13:13;65.57;;;2.40;;
4049;SDS011;2039;50.894;6.888;2022-09-09T14:15:40;64.60;;;2.00;;
4049;SDS011;2039;50.894;6.888;2022-09-09T14:18:17;64.20;;;1.90;;
4049;SDS011;2039;50.894;6.888;2022-09-09T14:20:48;64.37;;;1.90;;
4049;SDS011;2039;50.894;6.888;2022-09-09T14:23:15;67.50;;;2.10;;
4049;SDS011;2039;50.894;6.888;2022-09-09T14:25:42;65.47;;;2.03;;
4049;SDS011;2039;50.894;6.888;2022-09-09T14:28:12;65.10;;;2.00;;
4049;SDS011;2039;50.894;6.888;2022-09-09T14:30:39;65.70;;;2.20;;
4049;SDS011;2039;50.894;6.888;2022-09-09T14:33:06;74.80;;;5.90;;
4049;SDS011;2039;50.894;6.888;2022-09-09T14:35:36;69.63;;;7.13;;
4049;SDS011;2039;50.894;6.888;2022-09-09T14:38:03;70.57;;;7.90;;
4049;SDS011;2039;50.894;6.888;2022-09-09T14:40:29;69.60;;;6.03;;
4049;SDS011;2039;50.894;6.888;2022-09-09T14:42:56;65.30;;;4.50;;
4049;SDS011;2039;50.894;6.888;2022-09-09T14:45:24;67.70;;;5.33;;
4049;SDS011;2039;50.894;6.888;2022-09-09T14:47:51;72.10;;;7.23;;
4049;SDS011;2039;50.894;6.888;2022-09-09T14:50:18;65.60;;;9.60;;
4049;SDS011;2039;50.894;6.888;2022-09-09T14:52:44;68.20;;;7.70;;
4049;SDS011;2039;50.894;6.888;2022-09-09T14:55:10;67.17;;;7.53;;
4049;SDS011;2039;50.894;6.888;2022-09-09T14:57:36;63.90;;;4.17;;
4049;SDS011;2039;50.894;6.888;2022-09-09T15:00:04;64.70;;;4.60;;
4049;SDS011;2039;50.894;6.888;2022-09-09T15:02:30;63.53;;;3.30;;
4049;SDS011;2039;50.894;6.888;2022-09-09T15:04:56;63.30;;;4.43;;
4049;SDS011;2039;50.894;6.888;2022-09-09T15:07:23;64.67;;;4.07;;
4049;SDS011;2039;50.894;6.888;2022-09-09T15:09:49;65.50;;;3.80;;
4049;SDS011;2039;50.894;6.888;2022-09-09T15:12:15;66.13;;;3.80;;
4049;SDS011;2039;50.894;6.888;2022-09-09T15:14:43;67.27;;;3.37;;
4049;SDS011;2039;50.894;6.888;2022-09-09T15:17:09;64.53;;;3.07;;
4049;SDS011;2039;50.894;6.888;2022-09-09T15:19:36;65.97;;;3.40;;
4049;SDS011;2039;50.894;6.888;2022-09-09T15:22:03;64.43;;;3.20;;
4049;SDS011;2039;50.894;6.888;2022-09-09T15:24:30;65.33;;;3.30;;
4049;SDS011;2039;50.894;6.888;2022-09-09T15:26:57;64.47;;;3.10;;
4049;SDS011;2039;50.894;6.888;2022-09-09T15:29:23;65.20;;;3.70;;
4049;SDS011;2039;50.894;6.888;2022-09-09T15:31:49;63.60;;;3.97;;
4049;SDS011;2039;50.894;6.888;2022-09-09T15:34:15;65.00;;;3.17;;
4049;SDS011;2039;50.894;6.888;2022-09-09T15:36:42;65.27;;;3.00;;
4049;SDS011;2039;50.894;6.888;2022-09-09T15:39:09;63.13;;;3.50;;
4049;SDS011;2039;50.894;6.888;2022-09-09T15:41:37;62.83;;;3.20;;
4049;SDS011;2039;50.894;6.888;2022-09-09T15:44:04;64.73;;;3.00;;
4049;SDS011;2039;50.894;6.888;2022-09-09T15:46:34;70.70;;;3.67;;
4049;SDS011;2039;50.894;6.888;2022-09-09T15:49:14;64.30;;;3.00;;
4049;SDS011;2039;50.894;6.888;2022-09-09T15:51:43;64.83;;;3.37;;
4049;SDS011;2039;50.894;6.888;2022-09-09T15:54:14;62.70;;;2.87;;
4049;SDS011;2039;50.894;6.888;2022-09-09T15:56:49;63.17;;;3.70;;
4049;SDS011;2039;50.894;6.888;2022-09-09T15:59:22;62.67;;;3.87;;
4049;SDS011;2039;50.894;6.888;2022-09-09T16:01:49;62.87;;;3.70;;
4049;SDS011;2039;50.894;6.888;2022-09-09T16:04:18;63.13;;;3.10;;
4049;SDS011;2039;50.894;6.888;2022-09-09T16:06:51;63.60;;;3.40;;
4049;SDS011;2039;50.894;6.888;2022-09-09T16:09:18;63.07;;;3.50;;
4049;SDS011;2039;50.894;6.888;2022-09-09T16:11:44;63.90;;;3.63;;
4049;SDS011;2039;50.894;6.888;2022-09-09T16:14:11;64.60;;;4.10;;
4049;SDS011;2039;50.894;6.888;2022-09-09T16:16:38;63.97;;;3.57;;
4049;SDS011;2039;50.894;6.888;2022-09-09T16:19:05;64.47;;;4.47;;
4049;SDS011;2039;50.894;6.888;2022-09-09T16:21:38;65.30;;;4.40;;
4049;SDS011;2039;50.894;6.888;2022-09-09T16:24:07;64.70;;;5.13;;
4049;SDS011;2039;50.894;6.888;2022-09-09T16:26:37;64.00;;;4.67;;
4049;SDS011;2039;50.894;6.888;2022-09-09T16:29:05;64.37;;;4.60;;
4049;SDS011;2039;50.894;6.888;2022-09-09T16:31:31;67.57;;;5.53;;
4049;SDS011;2039;50.894;6.888;2022-09-09T16:33:57;65.17;;;4.80;;
4049;SDS011;2039;50.894;6.888;2022-09-09T16:36:23;65.10;;;4.80;;
4049;SDS011;2039;50.894;6.888;2022-09-09T16:38:58;65.80;;;4.20;;
4049;SDS011;2039;50.894;6.888;2022-09-09T16:41:25;64.27;;;4.70;;
4049;SDS011;2039;50.894;6.888;2022-09-09T16:43:55;65.57;;;4.80;;
4049;SDS011;2039;50.894;6.888;2022-09-09T16:46:24;64.63;;;4.77;;
4049;SDS011;2039;50.894;6.888;2022-09-09T16:48:51;66.20;;;5.27;;
4049;SDS011;2039;50.894;6.888;2022-09-09T16:51:30;67.30;;;4.23;;
4049;SDS011;2039;50.894;6.888;2022-09-09T16:53:59;64.77;;;4.37;;
4049;SDS011;2039;50.894;6.888;2022-09-09T16:56:27;64.57;;;4.70;;
4049;SDS011;2039;50.894;6.888;2022-09-09T16:58:59;65.47;;;5.00;;
4049;SDS011;2039;50.894;6.888;2022-09-09T17:01:28;64.80;;;4.60;;
4049;SDS011;2039;50.894;6.888;2022-09-09T17:03:57;64.30;;;4.43;;
4049;SDS011;2039;50.894;6.888;2022-09-09T17:06:24;64.27;;;4.17;;
4049;SDS011;2039;50.894;6.888;2022-09-09T17:08:54;65.50;;;4.83;;
4049;SDS011;2039;50.894;6.888;2022-09-09T17:11:24;64.27;;;4.30;;
4049;SDS011;2039;50.894;6.888;2022-09-09T17:13:51;64.90;;;4.57;;
4049;SDS011;2039;50.894;6.888;2022-09-09T17:16:18;63.57;;;5.30;;
4049;SDS011;2039;50.894;6.888;2022-09-09T17:18:50;64.10;;;3.90;;
4049;SDS011;2039;50.894;6.888;2022-09-09T17:21:17;64.23;;;4.30;;
4049;SDS011;2039;50.894;6.888;2022-09-09T17:23:44;64.07;;;4.17;;
4049;SDS011;2039;50.894;6.888;2022-09-09T17:26:12;64.40;;;5.00;;
4049;SDS011;2039;50.894;6.888;2022-09-09T17:28:40;65.87;;;4.70;;
4049;SDS011;2039;50.894;6.888;2022-09-09T17:31:07;64.47;;;5.10;;
4049;SDS011;2039;50.894;6.888;2022-09-09T17:33:39;63.47;;;4.87;;
4049;SDS011;2039;50.894;6.888;2022-09-09T17:36:10;64.87;;;5.70;;
4049;SDS011;2039;50.894;6.888;2022-09-09T17:38:41;63.97;;;5.20;;
4049;SDS011;2039;50.894;6.888;2022-09-09T17:41:12;65.83;;;6.43;;
4049;SDS011;2039;50.894;6.888;2022-09-09T17:43:40;66.20;;;6.17;;
4049;SDS011;2039;50.894;6.888;2022-09-09T17:48:34;64.90;;;5.57;;
4049;SDS011;2039;50.894;6.888;2022-09-09T17:51:02;66.17;;;7.37;;
4049;SDS011;2039;50.894;6.888;2022-09-09T17:53:42;66.60;;;5.80;;
4049;SDS011;2039;50.894;6.888;2022-09-09T17:56:11;64.07;;;5.90;;
4049;SDS011;2039;50.894;6.888;2022-09-09T17:58:38;65.97;;;7.27;;
4049;SDS011;2039;50.894;6.888;2022-09-09T18:01:08;65.47;;;7.07;;
4049;SDS011;2039;50.894;6.888;2022-09-09T18:03:36;64.93;;;5.70;;
4049;SDS011;2039;50.894;6.888;2022-09-09T18:06:08;67.00;;;6.43;;
4049;SDS011;2039;50.894;6.888;2022-09-09T18:08:37;68.70;;;6.83;;